sensor_id;sensor_type;location;lat;lon;timestamp;temperature;humidity
831;DHT22;397;50.564;7.272;2022-10-17T00:00:45;16.10;99.90
831;DHT22;397;50.564;7.272;2022-10-17T00:03:13;16.10;99.90
831;DHT22;397;50.564;7.272;2022-10-17T00:05:42;16.10;99.90
831;DHT22;397;50.564;7.272;2022-10-17T00:08:12;16.10;99.90
831;DHT22;397;50.564;7.272;2022-10-17T00:10:40;16.10;99.90
831;DHT22;397;50.564;7.272;2022-10-17T00:13:09;16.10;99.90
831;DHT22;397;50.564;7.272;2022-10-17T00:15:36;16.10;99.90
831;DHT22;397;50.564;7.272;2022-10-17T00:18:04;16.00;99.90
831;DHT22;397;50.564;7.272;2022-10-17T00:20:34;16.00;99.90
831;DHT22;397;50.564;7.272;2022-10-17T00:23:01;16.10;99.90
831;DHT22;397;50.564;7.272;2022-10-17T00:25:29;16.10;99.90
831;DHT22;397;50.564;7.272;2022-10-17T00:27:56;16.00;99.90
831;DHT22;397;50.564;7.272;2022-10-17T00:30:24;16.10;99.90
831;DHT22;397;50.564;7.272;2022-10-17T00:32:52;16.00;99.90
831;DHT22;397;50.564;7.272;2022-10-17T00:35:19;16.00;99.90
831;DHT22;397;50.564;7.272;2022-10-17T00:37:47;16.00;99.90
831;DHT22;397;50.564;7.272;2022-10-17T00:40:14;15.90;99.90
831;DHT22;397;50.564;7.272;2022-10-17T00:42:42;15.80;99.90
831;DHT22;397;50.564;7.272;2022-10-17T00:45:19;15.80;99.90
831;DHT22;397;50.564;7.272;2022-10-17T00:47:49;15.80;99.90
831;DHT22;397;50.564;7.272;2022-10-17T00:50:17;15.80;99.90
831;DHT22;397;50.564;7.272;2022-10-17T00:52:46;15.80;99.90
831;DHT22;397;50.564;7.272;2022-10-17T00:55:20;15.70;99.90
831;DHT22;397;50.564;7.272;2022-10-17T00:57:46;15.70;99.90
831;DHT22;397;50.564;7.272;2022-10-17T01:00:15;15.60;99.90
831;DHT22;397;50.564;7.272;2022-10-17T01:02:44;15.70;99.90
831;DHT22;397;50.564;7.272;2022-10-17T01:05:13;15.70;99.90
831;DHT22;397;50.564;7.272;2022-10-17T01:07:42;15.80;99.90
831;DHT22;397;50.564;7.272;2022-10-17T01:10:11;15.80;99.90
831;DHT22;397;50.564;7.272;2022-10-17T01:12:51;15.80;99.90
831;DHT22;397;50.564;7.272;2022-10-17T01:18:31;15.80;99.90
831;DHT22;397;50.564;7.272;2022-10-17T01:24:09;15.70;99.90
831;DHT22;397;50.564;7.272;2022-10-17T01:29:34;15.70;99.90
831;DHT22;397;50.564;7.272;2022-10-17T01:32:03;15.70;99.90
831;DHT22;397;50.564;7.272;2022-10-17T01:34:34;15.70;99.90
831;DHT22;397;50.564;7.272;2022-10-17T01:37:20;15.70;99.90
831;DHT22;397;50.564;7.272;2022-10-17T01:40:21;15.70;99.90
831;DHT22;397;50.564;7.272;2022-10-17T01:43:02;15.60;99.90
831;DHT22;397;50.564;7.272;2022-10-17T01:48:04;15.70;99.90
831;DHT22;397;50.564;7.272;2022-10-17T01:50:34;15.70;99.90
831;DHT22;397;50.564;7.272;2022-10-17T01:53:05;15.70;99.90
831;DHT22;397;50.564;7.272;2022-10-17T01:55:35;15.70;99.90
831;DHT22;397;50.564;7.272;2022-10-17T01:58:16;15.70;99.90
831;DHT22;397;50.564;7.272;2022-10-17T02:00:45;15.80;99.90
831;DHT22;397;50.564;7.272;2022-10-17T02:03:17;15.80;99.90
831;DHT22;397;50.564;7.272;2022-10-17T02:05:46;15.70;99.90
831;DHT22;397;50.564;7.272;2022-10-17T02:08:26;15.70;99.90
831;DHT22;397;50.564;7.272;2022-10-17T02:10:54;15.70;99.90
831;DHT22;397;50.564;7.272;2022-10-17T02:13:34;15.60;99.90
831;DHT22;397;50.564;7.272;2022-10-17T02:21:48;15.60;99.90
831;DHT22;397;50.564;7.272;2022-10-17T02:24:09;15.60;99.90
831;DHT22;397;50.564;7.272;2022-10-17T02:26:48;15.50;99.90
831;DHT22;397;50.564;7.272;2022-10-17T02:29:17;15.50;99.90
831;DHT22;397;50.564;7.272;2022-10-17T02:31:55;15.50;99.90
831;DHT22;397;50.564;7.272;2022-10-17T02:34:25;15.50;99.90
831;DHT22;397;50.564;7.272;2022-10-17T02:36:55;15.50;99.90
831;DHT22;397;50.564;7.272;2022-10-17T02:39:24;15.50;99.90
831;DHT22;397;50.564;7.272;2022-10-17T02:41:55;15.40;99.90
831;DHT22;397;50.564;7.272;2022-10-17T02:44:24;15.50;99.90
831;DHT22;397;50.564;7.272;2022-10-17T02:47:07;15.40;99.90
831;DHT22;397;50.564;7.272;2022-10-17T02:49:30;15.40;99.90
831;DHT22;397;50.564;7.272;2022-10-17T02:52:06;15.40;99.90
831;DHT22;397;50.564;7.272;2022-10-17T02:54:32;15.50;99.90
831;DHT22;397;50.564;7.272;2022-10-17T02:57:15;15.50;99.90
831;DHT22;397;50.564;7.272;2022-10-17T02:59:37;15.60;99.90
831;DHT22;397;50.564;7.272;2022-10-17T03:02:07;15.60;99.90
831;DHT22;397;50.564;7.272;2022-10-17T03:04:35;15.60;99.90
831;DHT22;397;50.564;7.272;2022-10-17T03:07:02;15.60;99.90
831;DHT22;397;50.564;7.272;2022-10-17T03:09:30;15.60;99.90
831;DHT22;397;50.564;7.272;2022-10-17T03:11:57;15.60;99.90
831;DHT22;397;50.564;7.272;2022-10-17T03:14:25;15.60;99.90
831;DHT22;397;50.564;7.272;2022-10-17T03:16:52;15.60;99.90
831;DHT22;397;50.564;7.272;2022-10-17T03:19:20;15.60;99.90
831;DHT22;397;50.564;7.272;2022-10-17T03:21:47;15.60;99.90
831;DHT22;397;50.564;7.272;2022-10-17T03:24:15;15.60;99.90
831;DHT22;397;50.564;7.272;2022-10-17T03:26:42;15.60;99.90
831;DHT22;397;50.564;7.272;2022-10-17T03:29:10;15.60;99.90
831;DHT22;397;50.564;7.272;2022-10-17T03:31:37;15.50;99.90
831;DHT22;397;50.564;7.272;2022-10-17T03:34:05;15.50;99.90
831;DHT22;397;50.564;7.272;2022-10-17T03:36:32;15.50;99.90
831;DHT22;397;50.564;7.272;2022-10-17T03:39:00;15.40;99.90
831;DHT22;397;50.564;7.272;2022-10-17T03:41:27;15.40;99.90
831;DHT22;397;50.564;7.272;2022-10-17T03:43:55;15.40;99.90
831;DHT22;397;50.564;7.272;2022-10-17T03:46:22;15.40;99.90
831;DHT22;397;50.564;7.272;2022-10-17T03:48:50;15.40;99.90
831;DHT22;397;50.564;7.272;2022-10-17T03:51:17;15.50;99.90
831;DHT22;397;50.564;7.272;2022-10-17T03:53:45;15.50;99.90
831;DHT22;397;50.564;7.272;2022-10-17T03:56:18;15.40;99.90
831;DHT22;397;50.564;7.272;2022-10-17T03:58:46;15.50;99.90
831;DHT22;397;50.564;7.272;2022-10-17T04:01:16;15.50;99.90
831;DHT22;397;50.564;7.272;2022-10-17T04:03:49;15.40;99.90
831;DHT22;397;50.564;7.272;2022-10-17T04:06:16;15.40;99.90
831;DHT22;397;50.564;7.272;2022-10-17T04:08:44;15.50;99.90
831;DHT22;397;50.564;7.272;2022-10-17T04:11:14;15.60;99.90
831;DHT22;397;50.564;7.272;2022-10-17T04:13:42;15.60;99.90
831;DHT22;397;50.564;7.272;2022-10-17T04:16:12;15.60;99.90
831;DHT22;397;50.564;7.272;2022-10-17T04:18:41;15.60;99.90
831;DHT22;397;50.564;7.272;2022-10-17T04:21:09;15.60;99.90
831;DHT22;397;50.564;7.272;2022-10-17T04:23:36;15.60;99.90
831;DHT22;397;50.564;7.272;2022-10-17T04:26:05;15.50;99.90
831;DHT22;397;50.564;7.272;2022-10-17T04:28:33;15.50;99.90
831;DHT22;397;50.564;7.272;2022-10-17T04:31:02;15.60;99.90
831;DHT22;397;50.564;7.272;2022-10-17T04:33:31;15.70;99.90
831;DHT22;397;50.564;7.272;2022-10-17T04:36:04;15.90;99.90
831;DHT22;397;50.564;7.272;2022-10-17T04:38:33;15.80;99.90
831;DHT22;397;50.564;7.272;2022-10-17T04:41:02;15.70;99.90
831;DHT22;397;50.564;7.272;2022-10-17T04:43:32;15.70;99.90
831;DHT22;397;50.564;7.272;2022-10-17T04:46:01;15.60;99.90
831;DHT22;397;50.564;7.272;2022-10-17T04:48:30;15.50;99.90
831;DHT22;397;50.564;7.272;2022-10-17T04:51:04;15.50;99.90
831;DHT22;397;50.564;7.272;2022-10-17T04:53:30;15.40;99.90
831;DHT22;397;50.564;7.272;2022-10-17T04:55:57;15.40;99.90
831;DHT22;397;50.564;7.272;2022-10-17T04:58:27;15.20;99.90
831;DHT22;397;50.564;7.272;2022-10-17T05:00:55;15.20;99.90
831;DHT22;397;50.564;7.272;2022-10-17T05:03:23;15.20;99.90
831;DHT22;397;50.564;7.272;2022-10-17T05:05:50;15.20;99.90
831;DHT22;397;50.564;7.272;2022-10-17T05:08:18;15.20;99.90
831;DHT22;397;50.564;7.272;2022-10-17T05:10:45;15.20;99.90
831;DHT22;397;50.564;7.272;2022-10-17T05:13:13;15.20;99.90
831;DHT22;397;50.564;7.272;2022-10-17T05:15:40;15.30;99.90
831;DHT22;397;50.564;7.272;2022-10-17T05:18:08;15.30;99.90
831;DHT22;397;50.564;7.272;2022-10-17T05:20:36;15.30;99.90
831;DHT22;397;50.564;7.272;2022-10-17T05:23:04;15.40;99.90
831;DHT22;397;50.564;7.272;2022-10-17T05:25:31;15.30;99.90
831;DHT22;397;50.564;7.272;2022-10-17T05:27:58;15.40;99.90
831;DHT22;397;50.564;7.272;2022-10-17T05:30:26;15.40;99.90
831;DHT22;397;50.564;7.272;2022-10-17T05:32:54;15.40;99.90
831;DHT22;397;50.564;7.272;2022-10-17T05:35:22;15.30;99.90
831;DHT22;397;50.564;7.272;2022-10-17T05:37:49;15.30;99.90
831;DHT22;397;50.564;7.272;2022-10-17T05:40:17;15.20;99.90
831;DHT22;397;50.564;7.272;2022-10-17T05:42:48;15.40;99.90
831;DHT22;397;50.564;7.272;2022-10-17T05:45:15;15.40;99.90
831;DHT22;397;50.564;7.272;2022-10-17T05:47:43;15.30;99.90
831;DHT22;397;50.564;7.272;2022-10-17T05:50:11;15.30;99.90
831;DHT22;397;50.564;7.272;2022-10-17T05:52:39;15.30;99.90
831;DHT22;397;50.564;7.272;2022-10-17T05:55:07;15.30;99.90
831;DHT22;397;50.564;7.272;2022-10-17T05:57:35;15.40;99.90
831;DHT22;397;50.564;7.272;2022-10-17T06:00:04;15.20;99.90
831;DHT22;397;50.564;7.272;2022-10-17T06:02:31;15.10;99.90
831;DHT22;397;50.564;7.272;2022-10-17T06:04:59;15.20;99.90
831;DHT22;397;50.564;7.272;2022-10-17T06:07:26;15.20;99.90
831;DHT22;397;50.564;7.272;2022-10-17T06:09:54;15.10;99.90
831;DHT22;397;50.564;7.272;2022-10-17T06:12:23;15.20;99.90
831;DHT22;397;50.564;7.272;2022-10-17T06:14:51;15.20;99.90
831;DHT22;397;50.564;7.272;2022-10-17T06:17:18;15.20;99.90
831;DHT22;397;50.564;7.272;2022-10-17T06:19:46;15.30;99.90
831;DHT22;397;50.564;7.272;2022-10-17T06:22:13;15.30;99.90
831;DHT22;397;50.564;7.272;2022-10-17T06:24:41;15.40;99.90
831;DHT22;397;50.564;7.272;2022-10-17T06:27:08;15.50;99.90
831;DHT22;397;50.564;7.272;2022-10-17T06:29:36;15.60;99.90
831;DHT22;397;50.564;7.272;2022-10-17T06:32:04;15.60;99.90
831;DHT22;397;50.564;7.272;2022-10-17T06:34:31;15.60;99.90
831;DHT22;397;50.564;7.272;2022-10-17T06:36:59;15.70;99.90
831;DHT22;397;50.564;7.272;2022-10-17T06:39:26;15.70;99.90
831;DHT22;397;50.564;7.272;2022-10-17T06:41:55;15.80;99.90
831;DHT22;397;50.564;7.272;2022-10-17T06:44:23;15.90;99.90
831;DHT22;397;50.564;7.272;2022-10-17T06:46:52;16.00;99.90
831;DHT22;397;50.564;7.272;2022-10-17T06:49:19;16.10;99.90
831;DHT22;397;50.564;7.272;2022-10-17T06:51:47;16.20;99.90
831;DHT22;397;50.564;7.272;2022-10-17T06:54:15;16.40;99.90
831;DHT22;397;50.564;7.272;2022-10-17T06:56:42;16.50;99.90
831;DHT22;397;50.564;7.272;2022-10-17T06:59:10;16.60;99.90
831;DHT22;397;50.564;7.272;2022-10-17T07:01:37;16.80;99.90
831;DHT22;397;50.564;7.272;2022-10-17T07:04:05;17.00;99.90
831;DHT22;397;50.564;7.272;2022-10-17T07:06:33;17.10;99.90
831;DHT22;397;50.564;7.272;2022-10-17T07:09:00;17.20;99.90
831;DHT22;397;50.564;7.272;2022-10-17T07:11:28;17.30;99.90
831;DHT22;397;50.564;7.272;2022-10-17T07:13:56;17.40;99.90
831;DHT22;397;50.564;7.272;2022-10-17T07:16:23;17.40;99.90
831;DHT22;397;50.564;7.272;2022-10-17T07:18:51;17.40;99.90
831;DHT22;397;50.564;7.272;2022-10-17T07:21:20;17.40;99.90
831;DHT22;397;50.564;7.272;2022-10-17T07:23:47;17.40;99.90
831;DHT22;397;50.564;7.272;2022-10-17T07:26:16;17.50;99.90
831;DHT22;397;50.564;7.272;2022-10-17T07:28:46;17.50;99.90
831;DHT22;397;50.564;7.272;2022-10-17T07:31:16;17.60;99.90
831;DHT22;397;50.564;7.272;2022-10-17T07:33:44;17.50;99.90
831;DHT22;397;50.564;7.272;2022-10-17T07:36:13;17.60;99.90
831;DHT22;397;50.564;7.272;2022-10-17T07:38:41;17.50;99.90
831;DHT22;397;50.564;7.272;2022-10-17T07:41:10;17.50;99.90
831;DHT22;397;50.564;7.272;2022-10-17T07:43:39;17.50;99.90
831;DHT22;397;50.564;7.272;2022-10-17T07:46:08;17.60;99.90
831;DHT22;397;50.564;7.272;2022-10-17T07:48:38;17.60;99.90
831;DHT22;397;50.564;7.272;2022-10-17T07:51:07;17.60;99.90
831;DHT22;397;50.564;7.272;2022-10-17T07:53:41;17.60;99.90
831;DHT22;397;50.564;7.272;2022-10-17T07:56:06;17.60;99.90
831;DHT22;397;50.564;7.272;2022-10-17T07:58:35;17.70;99.90
831;DHT22;397;50.564;7.272;2022-10-17T08:01:07;17.80;99.90
831;DHT22;397;50.564;7.272;2022-10-17T08:03:33;17.90;99.90
831;DHT22;397;50.564;7.272;2022-10-17T08:06:02;18.00;99.90
831;DHT22;397;50.564;7.272;2022-10-17T08:08:29;18.10;99.90
831;DHT22;397;50.564;7.272;2022-10-17T08:11:02;18.20;99.90
831;DHT22;397;50.564;7.272;2022-10-17T08:13:30;18.30;99.90
831;DHT22;397;50.564;7.272;2022-10-17T08:16:06;18.40;99.90
831;DHT22;397;50.564;7.272;2022-10-17T08:18:28;18.50;99.90
831;DHT22;397;50.564;7.272;2022-10-17T08:20:58;18.50;99.90
831;DHT22;397;50.564;7.272;2022-10-17T08:23:26;18.60;99.90
831;DHT22;397;50.564;7.272;2022-10-17T08:25:57;18.60;99.90
831;DHT22;397;50.564;7.272;2022-10-17T08:28:23;18.80;99.90
831;DHT22;397;50.564;7.272;2022-10-17T08:30:51;19.00;99.90
831;DHT22;397;50.564;7.272;2022-10-17T08:33:18;19.10;99.90
831;DHT22;397;50.564;7.272;2022-10-17T08:35:46;19.20;99.90
831;DHT22;397;50.564;7.272;2022-10-17T08:38:13;19.20;99.90
831;DHT22;397;50.564;7.272;2022-10-17T08:40:41;19.40;99.90
831;DHT22;397;50.564;7.272;2022-10-17T08:43:31;19.30;99.90
831;DHT22;397;50.564;7.272;2022-10-17T08:46:01;19.20;99.90
831;DHT22;397;50.564;7.272;2022-10-17T08:48:32;19.10;99.90
831;DHT22;397;50.564;7.272;2022-10-17T08:53:46;19.00;99.90
831;DHT22;397;50.564;7.272;2022-10-17T08:56:18;19.10;99.90
831;DHT22;397;50.564;7.272;2022-10-17T08:58:46;19.10;99.90
831;DHT22;397;50.564;7.272;2022-10-17T09:01:45;19.20;99.90
831;DHT22;397;50.564;7.272;2022-10-17T09:04:30;19.20;99.90
831;DHT22;397;50.564;7.272;2022-10-17T09:12:30;19.40;99.90
831;DHT22;397;50.564;7.272;2022-10-17T09:17:57;19.50;99.90
831;DHT22;397;50.564;7.272;2022-10-17T09:23:01;19.70;99.90
831;DHT22;397;50.564;7.272;2022-10-17T09:25:32;19.80;99.90
831;DHT22;397;50.564;7.272;2022-10-17T09:28:16;19.90;99.90
831;DHT22;397;50.564;7.272;2022-10-17T09:33:18;19.80;99.90
831;DHT22;397;50.564;7.272;2022-10-17T09:35:47;19.80;99.90
831;DHT22;397;50.564;7.272;2022-10-17T09:38:18;19.80;99.90
831;DHT22;397;50.564;7.272;2022-10-17T09:40:53;19.80;99.90
831;DHT22;397;50.564;7.272;2022-10-17T09:43:16;19.90;99.90
831;DHT22;397;50.564;7.272;2022-10-17T09:46:05;19.90;99.90
831;DHT22;397;50.564;7.272;2022-10-17T09:48:41;19.90;99.90
831;DHT22;397;50.564;7.272;2022-10-17T09:51:08;19.90;99.90
831;DHT22;397;50.564;7.272;2022-10-17T09:53:39;19.90;99.90
831;DHT22;397;50.564;7.272;2022-10-17T09:56:15;20.00;99.90
831;DHT22;397;50.564;7.272;2022-10-17T09:58:46;20.00;99.90
831;DHT22;397;50.564;7.272;2022-10-17T10:03:45;20.30;99.90
831;DHT22;397;50.564;7.272;2022-10-17T10:06:18;20.40;99.90
831;DHT22;397;50.564;7.272;2022-10-17T10:08:56;20.50;99.90
831;DHT22;397;50.564;7.272;2022-10-17T10:11:25;20.50;99.90
831;DHT22;397;50.564;7.272;2022-10-17T10:13:52;20.50;99.90
831;DHT22;397;50.564;7.272;2022-10-17T10:16:22;20.60;99.90
831;DHT22;397;50.564;7.272;2022-10-17T10:18:51;20.60;99.90
831;DHT22;397;50.564;7.272;2022-10-17T10:21:21;20.60;99.90
831;DHT22;397;50.564;7.272;2022-10-17T10:26:50;20.80;99.90
831;DHT22;397;50.564;7.272;2022-10-17T10:29:34;20.80;99.90
831;DHT22;397;50.564;7.272;2022-10-17T10:32:23;20.90;99.90
831;DHT22;397;50.564;7.272;2022-10-17T10:35:05;21.00;99.90
831;DHT22;397;50.564;7.272;2022-10-17T10:37:38;21.10;99.90
831;DHT22;397;50.564;7.272;2022-10-17T10:40:16;21.10;99.90
831;DHT22;397;50.564;7.272;2022-10-17T10:42:46;21.20;99.90
831;DHT22;397;50.564;7.272;2022-10-17T10:45:19;21.30;99.90
831;DHT22;397;50.564;7.272;2022-10-17T10:47:51;21.40;99.90
831;DHT22;397;50.564;7.272;2022-10-17T10:50:32;21.40;99.90
831;DHT22;397;50.564;7.272;2022-10-17T10:56:13;21.50;99.90
831;DHT22;397;50.564;7.272;2022-10-17T10:58:54;21.60;99.90
831;DHT22;397;50.564;7.272;2022-10-17T11:01:32;21.60;99.90
831;DHT22;397;50.564;7.272;2022-10-17T11:04:20;21.60;99.90
831;DHT22;397;50.564;7.272;2022-10-17T11:06:50;21.60;99.90
831;DHT22;397;50.564;7.272;2022-10-17T11:09:46;21.60;99.90
831;DHT22;397;50.564;7.272;2022-10-17T11:12:19;21.60;99.90
831;DHT22;397;50.564;7.272;2022-10-17T11:23:09;21.60;99.90
831;DHT22;397;50.564;7.272;2022-10-17T11:25:35;21.70;99.90
831;DHT22;397;50.564;7.272;2022-10-17T11:28:12;21.70;99.90
831;DHT22;397;50.564;7.272;2022-10-17T11:30:52;21.80;99.90
831;DHT22;397;50.564;7.272;2022-10-17T11:33:43;21.80;99.90
831;DHT22;397;50.564;7.272;2022-10-17T11:36:09;21.90;99.90
831;DHT22;397;50.564;7.272;2022-10-17T11:38:59;21.90;99.90
831;DHT22;397;50.564;7.272;2022-10-17T11:44:07;22.00;99.90
831;DHT22;397;50.564;7.272;2022-10-17T11:46:34;21.90;99.90
831;DHT22;397;50.564;7.272;2022-10-17T11:49:10;21.90;99.90
831;DHT22;397;50.564;7.272;2022-10-17T11:51:47;22.00;99.90
831;DHT22;397;50.564;7.272;2022-10-17T11:54:18;22.00;99.90
831;DHT22;397;50.564;7.272;2022-10-17T11:56:58;22.00;99.90
831;DHT22;397;50.564;7.272;2022-10-17T12:02:35;22.10;99.90
831;DHT22;397;50.564;7.272;2022-10-17T12:08:06;22.00;99.90
831;DHT22;397;50.564;7.272;2022-10-17T12:10:50;22.00;99.90
831;DHT22;397;50.564;7.272;2022-10-17T12:21:54;22.10;99.90
831;DHT22;397;50.564;7.272;2022-10-17T12:25:47;22.00;99.90
831;DHT22;397;50.564;7.272;2022-10-17T12:27:37;22.00;99.90
831;DHT22;397;50.564;7.272;2022-10-17T12:30:19;22.10;99.90
831;DHT22;397;50.564;7.272;2022-10-17T12:35:39;22.00;99.90
831;DHT22;397;50.564;7.272;2022-10-17T12:40:48;21.90;99.90
831;DHT22;397;50.564;7.272;2022-10-17T12:46:07;21.90;99.90
831;DHT22;397;50.564;7.272;2022-10-17T12:51:18;21.80;99.90
831;DHT22;397;50.564;7.272;2022-10-17T12:56:38;21.80;99.90
831;DHT22;397;50.564;7.272;2022-10-17T13:01:50;21.80;99.90
831;DHT22;397;50.564;7.272;2022-10-17T13:04:19;21.70;99.90
831;DHT22;397;50.564;7.272;2022-10-17T13:06:50;21.70;99.90
831;DHT22;397;50.564;7.272;2022-10-17T13:09:23;21.80;99.90
831;DHT22;397;50.564;7.272;2022-10-17T13:11:50;21.70;99.90
831;DHT22;397;50.564;7.272;2022-10-17T13:14:20;21.70;99.90
831;DHT22;397;50.564;7.272;2022-10-17T13:16:54;21.70;99.90
831;DHT22;397;50.564;7.272;2022-10-17T13:19:39;21.70;99.90
831;DHT22;397;50.564;7.272;2022-10-17T13:22:02;21.70;99.90
831;DHT22;397;50.564;7.272;2022-10-17T13:24:39;21.70;99.90
831;DHT22;397;50.564;7.272;2022-10-17T13:27:03;21.60;99.90
831;DHT22;397;50.564;7.272;2022-10-17T13:29:32;21.60;99.90
831;DHT22;397;50.564;7.272;2022-10-17T13:32:02;21.60;99.90
831;DHT22;397;50.564;7.272;2022-10-17T13:34:32;21.60;99.90
831;DHT22;397;50.564;7.272;2022-10-17T13:37:03;21.60;99.90
831;DHT22;397;50.564;7.272;2022-10-17T13:39:37;21.60;99.90
831;DHT22;397;50.564;7.272;2022-10-17T13:42:04;21.50;99.90
831;DHT22;397;50.564;7.272;2022-10-17T13:44:33;21.50;99.90
831;DHT22;397;50.564;7.272;2022-10-17T13:47:01;21.50;99.90
831;DHT22;397;50.564;7.272;2022-10-17T13:49:38;21.50;99.90
831;DHT22;397;50.564;7.272;2022-10-17T13:52:13;21.50;99.90
831;DHT22;397;50.564;7.272;2022-10-17T13:54:41;21.50;99.90
831;DHT22;397;50.564;7.272;2022-10-17T13:57:18;21.60;99.90
831;DHT22;397;50.564;7.272;2022-10-17T13:59:48;21.60;99.90
831;DHT22;397;50.564;7.272;2022-10-17T14:02:22;21.60;99.90
831;DHT22;397;50.564;7.272;2022-10-17T14:05:11;21.60;99.90
831;DHT22;397;50.564;7.272;2022-10-17T14:07:53;21.60;99.90
831;DHT22;397;50.564;7.272;2022-10-17T14:10:32;21.60;99.90
831;DHT22;397;50.564;7.272;2022-10-17T14:13:00;21.60;99.90
831;DHT22;397;50.564;7.272;2022-10-17T14:15:31;21.60;99.90
831;DHT22;397;50.564;7.272;2022-10-17T14:18:02;21.60;99.90
831;DHT22;397;50.564;7.272;2022-10-17T14:20:30;21.60;99.90
831;DHT22;397;50.564;7.272;2022-10-17T14:22:59;21.60;99.90
831;DHT22;397;50.564;7.272;2022-10-17T14:25:34;21.50;99.90
831;DHT22;397;50.564;7.272;2022-10-17T14:30:35;21.60;99.90
831;DHT22;397;50.564;7.272;2022-10-17T14:33:06;21.50;99.90
831;DHT22;397;50.564;7.272;2022-10-17T14:35:34;21.40;99.90
831;DHT22;397;50.564;7.272;2022-10-17T14:38:04;21.40;99.90
831;DHT22;397;50.564;7.272;2022-10-17T14:40:33;21.40;99.90
831;DHT22;397;50.564;7.272;2022-10-17T14:43:04;21.30;99.90
831;DHT22;397;50.564;7.272;2022-10-17T14:45:38;21.30;99.90
831;DHT22;397;50.564;7.272;2022-10-17T14:48:23;21.30;99.90
831;DHT22;397;50.564;7.272;2022-10-17T14:51:10;21.30;99.90
831;DHT22;397;50.564;7.272;2022-10-17T14:53:38;21.20;99.90
831;DHT22;397;50.564;7.272;2022-10-17T14:56:21;21.20;99.90
831;DHT22;397;50.564;7.272;2022-10-17T14:58:48;21.20;99.90
831;DHT22;397;50.564;7.272;2022-10-17T15:01:17;21.10;99.90
831;DHT22;397;50.564;7.272;2022-10-17T15:03:45;21.10;99.90
831;DHT22;397;50.564;7.272;2022-10-17T15:06:20;21.10;99.90
831;DHT22;397;50.564;7.272;2022-10-17T15:08:49;21.10;99.90
831;DHT22;397;50.564;7.272;2022-10-17T15:11:16;21.10;99.90
831;DHT22;397;50.564;7.272;2022-10-17T15:13:44;21.10;99.90
831;DHT22;397;50.564;7.272;2022-10-17T15:16:31;21.10;99.90
831;DHT22;397;50.564;7.272;2022-10-17T15:18:45;21.10;99.90
831;DHT22;397;50.564;7.272;2022-10-17T15:21:14;21.10;99.90
831;DHT22;397;50.564;7.272;2022-10-17T15:23:42;21.10;99.90
831;DHT22;397;50.564;7.272;2022-10-17T15:26:20;21.10;99.90
831;DHT22;397;50.564;7.272;2022-10-17T15:28:44;21.10;99.90
831;DHT22;397;50.564;7.272;2022-10-17T15:31:15;21.10;99.90
831;DHT22;397;50.564;7.272;2022-10-17T15:33:43;21.00;99.90
831;DHT22;397;50.564;7.272;2022-10-17T15:38:52;20.90;99.90
831;DHT22;397;50.564;7.272;2022-10-17T15:41:22;20.80;99.90
831;DHT22;397;50.564;7.272;2022-10-17T15:43:51;20.70;99.90
831;DHT22;397;50.564;7.272;2022-10-17T15:46:24;20.70;99.90
831;DHT22;397;50.564;7.272;2022-10-17T15:48:56;20.70;99.90
831;DHT22;397;50.564;7.272;2022-10-17T15:51:24;20.60;99.90
831;DHT22;397;50.564;7.272;2022-10-17T15:53:52;20.60;99.90
831;DHT22;397;50.564;7.272;2022-10-17T15:56:25;20.60;99.90
831;DHT22;397;50.564;7.272;2022-10-17T15:58:53;20.60;99.90
831;DHT22;397;50.564;7.272;2022-10-17T16:01:27;20.50;99.90
831;DHT22;397;50.564;7.272;2022-10-17T16:03:55;20.50;99.90
831;DHT22;397;50.564;7.272;2022-10-17T16:06:23;20.40;99.90
831;DHT22;397;50.564;7.272;2022-10-17T16:08:51;20.40;99.90
831;DHT22;397;50.564;7.272;2022-10-17T16:11:38;20.30;99.90
831;DHT22;397;50.564;7.272;2022-10-17T16:14:07;20.30;99.90
831;DHT22;397;50.564;7.272;2022-10-17T16:16:35;20.30;99.90
831;DHT22;397;50.564;7.272;2022-10-17T16:19:02;20.20;99.90
831;DHT22;397;50.564;7.272;2022-10-17T16:21:33;20.20;99.90
831;DHT22;397;50.564;7.272;2022-10-17T16:24:02;20.20;99.90
831;DHT22;397;50.564;7.272;2022-10-17T16:26:30;20.10;99.90
831;DHT22;397;50.564;7.272;2022-10-17T16:28:58;20.10;99.90
831;DHT22;397;50.564;7.272;2022-10-17T16:31:39;20.10;99.90
831;DHT22;397;50.564;7.272;2022-10-17T16:34:02;20.00;99.90
831;DHT22;397;50.564;7.272;2022-10-17T16:36:30;19.90;99.90
831;DHT22;397;50.564;7.272;2022-10-17T16:38:57;19.80;99.90
831;DHT22;397;50.564;7.272;2022-10-17T16:41:30;19.80;99.90
831;DHT22;397;50.564;7.272;2022-10-17T16:44:00;19.70;99.90
831;DHT22;397;50.564;7.272;2022-10-17T16:46:29;19.60;99.90
831;DHT22;397;50.564;7.272;2022-10-17T16:48:57;19.60;99.90
831;DHT22;397;50.564;7.272;2022-10-17T16:51:25;19.60;99.90
831;DHT22;397;50.564;7.272;2022-10-17T16:53:55;19.60;99.90
831;DHT22;397;50.564;7.272;2022-10-17T16:56:24;19.60;99.90
831;DHT22;397;50.564;7.272;2022-10-17T16:58:53;19.60;99.90
831;DHT22;397;50.564;7.272;2022-10-17T17:01:23;19.60;99.90
831;DHT22;397;50.564;7.272;2022-10-17T17:03:51;19.60;99.90
831;DHT22;397;50.564;7.272;2022-10-17T17:06:24;19.50;99.90
831;DHT22;397;50.564;7.272;2022-10-17T17:08:53;19.50;99.90
831;DHT22;397;50.564;7.272;2022-10-17T17:11:23;19.50;99.90
831;DHT22;397;50.564;7.272;2022-10-17T17:13:53;19.40;99.90
831;DHT22;397;50.564;7.272;2022-10-17T17:16:22;19.40;99.90
831;DHT22;397;50.564;7.272;2022-10-17T17:18:55;19.30;99.90
831;DHT22;397;50.564;7.272;2022-10-17T17:21:23;19.30;99.90
831;DHT22;397;50.564;7.272;2022-10-17T17:23:54;19.20;99.90
831;DHT22;397;50.564;7.272;2022-10-17T17:26:26;19.20;99.90
831;DHT22;397;50.564;7.272;2022-10-17T17:28:56;19.20;99.90
831;DHT22;397;50.564;7.272;2022-10-17T17:31:27;19.20;99.90
831;DHT22;397;50.564;7.272;2022-10-17T17:33:55;19.10;99.90
831;DHT22;397;50.564;7.272;2022-10-17T17:36:25;19.00;99.90
831;DHT22;397;50.564;7.272;2022-10-17T17:38:56;19.00;99.90
831;DHT22;397;50.564;7.272;2022-10-17T17:41:24;19.00;99.90
831;DHT22;397;50.564;7.272;2022-10-17T17:43:52;19.00;99.90
831;DHT22;397;50.564;7.272;2022-10-17T17:46:20;18.90;99.90
831;DHT22;397;50.564;7.272;2022-10-17T17:48:49;18.90;99.90
831;DHT22;397;50.564;7.272;2022-10-17T17:51:20;18.80;99.90
831;DHT22;397;50.564;7.272;2022-10-17T17:53:48;18.80;99.90
831;DHT22;397;50.564;7.272;2022-10-17T17:56:24;18.80;99.90
831;DHT22;397;50.564;7.272;2022-10-17T17:58:57;18.70;99.90
831;DHT22;397;50.564;7.272;2022-10-17T18:01:22;18.80;99.90
831;DHT22;397;50.564;7.272;2022-10-17T18:03:51;18.80;99.90
831;DHT22;397;50.564;7.272;2022-10-17T18:06:20;18.70;99.90
831;DHT22;397;50.564;7.272;2022-10-17T18:08:51;18.70;99.90
831;DHT22;397;50.564;7.272;2022-10-17T18:11:19;18.70;99.90
831;DHT22;397;50.564;7.272;2022-10-17T18:13:47;18.50;99.90
831;DHT22;397;50.564;7.272;2022-10-17T18:16:14;18.50;99.90
831;DHT22;397;50.564;7.272;2022-10-17T18:18:43;18.50;99.90
831;DHT22;397;50.564;7.272;2022-10-17T18:21:12;18.50;99.90
831;DHT22;397;50.564;7.272;2022-10-17T18:23:41;18.40;99.90
831;DHT22;397;50.564;7.272;2022-10-17T18:26:09;18.50;99.90